createdAt,value
2023-05-19T00:00:56.388Z,100115.59
2023-05-19T00:03:27.179Z,100115.03
2023-05-19T00:08:32.820Z,100116.88
2023-05-19T00:11:02.625Z,100116.75
2023-05-19T00:13:33.666Z,100127.38
2023-05-19T00:16:03.409Z,100118.69
2023-05-19T00:18:32.542Z,100126.81
2023-05-19T00:21:01.689Z,100126.91
2023-05-19T00:23:30.997Z,100128.50
2023-05-19T00:25:59.908Z,100129.53
2023-05-19T00:28:28.896Z,100133.97
2023-05-19T00:30:59.346Z,100134.19
2023-05-19T00:33:28.422Z,100137.16
2023-05-19T00:35:57.553Z,100134.66
2023-05-19T00:38:26.665Z,100141.50
2023-05-19T00:40:55.960Z,100143.53
2023-05-19T00:43:25.063Z,100133.63
2023-05-19T00:45:54.464Z,100141.50
2023-05-19T00:48:26.132Z,100147.66
2023-05-19T00:51:02.347Z,100145.41
2023-05-19T00:53:33.201Z,100149.50
2023-05-19T00:56:04.300Z,100152.00
2023-05-19T00:58:34.966Z,100151.09
2023-05-19T01:01:07.017Z,100150.84
2023-05-19T01:03:38.105Z,100152.22
2023-05-19T01:06:08.086Z,100152.47
2023-05-19T01:08:38.669Z,100160.09
2023-05-19T01:11:08.641Z,100159.03
2023-05-19T01:13:41.102Z,100161.31
2023-05-19T01:16:15.411Z,100157.88
2023-05-19T01:18:56.445Z,100163.25
2023-05-19T01:22:07.004Z,100165.63
2023-05-19T01:25:13.311Z,100177.69
2023-05-19T01:28:13.133Z,100175.13
2023-05-19T01:30:44.757Z,100184.22
2023-05-19T01:33:16.473Z,100180.34
2023-05-19T01:35:48.551Z,100178.94
2023-05-19T01:38:19.994Z,100177.13
2023-05-19T01:40:51.644Z,100183.94
2023-05-19T01:43:23.354Z,100190.31
2023-05-19T01:45:54.261Z,100191.44
2023-05-19T01:48:24.711Z,100189.22
2023-05-19T01:50:53.892Z,100192.69
2023-05-19T01:53:22.988Z,100191.97
2023-05-19T01:55:56.166Z,100196.84
2023-05-19T01:58:35.273Z,100197.94
2023-05-19T02:01:17.840Z,100196.66
2023-05-19T02:04:03.522Z,100194.16
2023-05-19T02:06:37.237Z,100201.88
2023-05-19T02:09:16.890Z,100215.25
2023-05-19T02:11:53.410Z,100199.97
2023-05-19T02:14:30.114Z,100204.84
2023-05-19T02:17:02.094Z,100201.97
2023-05-19T02:19:33.437Z,100200.06
2023-05-19T02:22:02.578Z,100199.13
2023-05-19T02:24:31.649Z,100218.78
2023-05-19T02:27:01.675Z,100214.50
2023-05-19T02:29:31.009Z,100214.53
2023-05-19T02:32:02.614Z,100216.72
2023-05-19T02:34:31.871Z,100213.72
2023-05-19T02:37:01.419Z,100218.84
2023-05-19T02:39:35.340Z,100210.88
2023-05-19T02:42:04.681Z,100222.50
2023-05-19T02:44:33.780Z,100218.03
2023-05-19T02:47:04.171Z,100235.28
2023-05-19T02:49:36.210Z,100238.94
2023-05-19T02:52:06.199Z,100242.00
2023-05-19T02:54:36.169Z,100240.38
2023-05-19T02:57:05.522Z,100252.06
2023-05-19T02:59:34.609Z,100248.44
2023-05-19T03:02:05.271Z,100251.91
2023-05-19T03:04:41.769Z,100259.31
2023-05-19T03:07:13.425Z,100258.13
2023-05-19T03:09:42.596Z,100259.41
2023-05-19T03:12:11.850Z,100260.03
2023-05-19T03:14:41.318Z,100262.78
2023-05-19T03:17:12.552Z,100277.44
2023-05-19T03:19:41.661Z,100269.84
2023-05-19T03:22:10.785Z,100267.00
2023-05-19T03:24:40.190Z,100268.84
2023-05-19T03:27:09.854Z,100276.25
2023-05-19T03:29:39.422Z,100275.31
2023-05-19T03:32:09.052Z,100275.94
2023-05-19T03:34:40.316Z,100281.44
2023-05-19T03:37:10.863Z,100273.91
2023-05-19T03:39:41.757Z,100280.53
2023-05-19T03:42:11.126Z,100283.91
2023-05-19T03:44:40.172Z,100288.16
2023-05-19T03:47:09.324Z,100285.06
2023-05-19T03:49:42.450Z,100286.75
2023-05-19T03:52:31.566Z,100295.41
2023-05-19T03:55:16.501Z,100296.53
2023-05-19T03:57:45.628Z,100293.22
2023-05-19T04:00:15.623Z,100288.06
2023-05-19T04:02:44.850Z,100286.72
2023-05-19T04:05:15.897Z,100292.97
2023-05-19T04:07:46.766Z,100290.94
2023-05-19T04:10:16.207Z,100292.88
2023-05-19T04:12:45.232Z,100287.75
2023-05-19T04:15:14.250Z,100294.69
2023-05-19T04:17:43.614Z,100285.94
2023-05-19T04:20:15.057Z,100286.72
2023-05-19T04:22:44.119Z,100297.06
2023-05-19T04:25:13.440Z,100302.53
2023-05-19T04:27:42.694Z,100303.78
2023-05-19T04:30:13.287Z,100310.38
2023-05-19T04:32:42.502Z,100307.31
2023-05-19T04:35:13.848Z,100312.19
2023-05-19T04:37:46.216Z,100310.78
2023-05-19T04:40:17.555Z,100313.31
2023-05-19T04:42:46.875Z,100309.25
2023-05-19T04:45:16.018Z,100311.88
2023-05-19T04:47:49.460Z,100314.38
2023-05-19T04:50:19.503Z,100317.34
2023-05-19T04:52:50.207Z,100316.28
2023-05-19T04:55:19.342Z,100313.88
2023-05-19T04:57:50.023Z,100315.75
2023-05-19T05:00:20.662Z,100319.78
2023-05-19T05:03:05.385Z,100321.59
2023-05-19T05:05:36.046Z,100318.84
2023-05-19T05:08:07.420Z,100332.31
2023-05-19T05:10:42.339Z,100322.97
2023-05-19T05:13:12.216Z,100336.28
2023-05-19T05:15:42.158Z,100332.91
2023-05-19T05:18:13.200Z,100340.22
2023-05-19T05:20:43.218Z,100333.91
2023-05-19T05:23:16.920Z,100334.44
2023-05-19T05:25:49.084Z,100335.66
2023-05-19T05:28:19.186Z,100343.47
2023-05-19T05:30:50.431Z,100346.00
2023-05-19T05:33:22.482Z,100349.50
2023-05-19T05:35:51.700Z,100345.38
2023-05-19T05:38:22.359Z,100353.72
2023-05-19T05:40:51.636Z,100352.66
2023-05-19T05:43:21.749Z,100351.97
2023-05-19T05:45:56.688Z,100365.91
2023-05-19T05:48:26.726Z,100357.44
2023-05-19T05:50:57.843Z,100360.00
2023-05-19T05:53:35.737Z,100359.00
2023-05-19T05:56:06.219Z,100364.22
2023-05-19T05:58:44.306Z,100365.13
2023-05-19T06:01:13.516Z,100363.44
2023-05-19T06:03:45.196Z,100367.59
2023-05-19T06:06:17.870Z,100374.69
2023-05-19T06:08:48.843Z,100365.84
2023-05-19T06:11:19.732Z,100375.56
2023-05-19T06:13:49.994Z,100376.41
2023-05-19T06:16:35.322Z,100379.72
2023-05-19T06:19:04.632Z,100372.06
2023-05-19T06:21:33.984Z,100370.31
2023-05-19T06:24:04.735Z,100381.63
2023-05-19T06:26:33.960Z,100377.50
2023-05-19T06:29:03.322Z,100381.44
2023-05-19T06:31:34.600Z,100377.09
2023-05-19T06:34:15.055Z,100380.81
2023-05-19T06:36:44.442Z,100384.84
2023-05-19T06:39:16.276Z,100385.34
2023-05-19T06:41:45.692Z,100382.38
2023-05-19T06:44:34.435Z,100380.44
2023-05-19T06:47:03.707Z,100390.59
2023-05-19T06:49:32.856Z,100378.63
2023-05-19T06:52:02.415Z,100392.19
2023-05-19T06:54:33.183Z,100396.31
2023-05-19T06:57:02.512Z,100388.59
2023-05-19T06:59:31.718Z,100393.97
2023-05-19T07:02:02.603Z,100401.22
2023-05-19T07:04:31.853Z,100394.88
2023-05-19T07:07:00.918Z,100393.19
2023-05-19T07:09:30.396Z,100403.19
2023-05-19T07:12:01.580Z,100399.59
2023-05-19T07:14:31.935Z,100401.97
2023-05-19T07:17:02.776Z,100399.84
2023-05-19T07:19:32.061Z,100404.06
2023-05-19T07:22:01.080Z,100401.91
2023-05-19T07:24:31.146Z,100399.03
2023-05-19T07:27:02.649Z,100401.91
2023-05-19T07:29:31.884Z,100398.50
2023-05-19T07:32:00.991Z,100396.66
2023-05-19T07:34:30.095Z,100390.56
2023-05-19T07:36:59.217Z,100391.28
2023-05-19T07:39:31.082Z,100389.47
2023-05-19T07:42:04.196Z,100393.53
2023-05-19T07:44:33.563Z,100393.06
2023-05-19T07:47:03.208Z,100392.09
2023-05-19T07:49:32.695Z,100386.25
2023-05-19T07:52:01.959Z,100386.38
2023-05-19T07:54:31.379Z,100387.59
2023-05-19T07:57:02.029Z,100379.91
2023-05-19T07:59:31.534Z,100392.66
2023-05-19T08:02:00.782Z,100384.84
2023-05-19T08:04:30.168Z,100391.72
2023-05-19T08:12:10.793Z,100373.22
2023-05-19T08:14:39.910Z,100386.09
2023-05-19T08:17:08.961Z,100387.00
2023-05-19T08:19:38.182Z,100386.22
2023-05-19T08:22:07.498Z,100382.91
2023-05-19T08:24:36.702Z,100387.44
2023-05-19T08:27:06.987Z,100387.50
2023-05-19T08:29:39.213Z,100385.16
2023-05-19T08:32:11.500Z,100381.53
2023-05-19T08:34:42.528Z,100383.81
2023-05-19T08:37:12.120Z,100392.25
2023-05-19T08:39:41.581Z,100388.41
2023-05-19T08:42:11.786Z,100385.81
2023-05-19T08:44:44.191Z,100385.19
2023-05-19T08:47:14.142Z,100389.94
2023-05-19T08:49:46.569Z,100397.09
2023-05-19T08:52:24.665Z,100387.34
2023-05-19T08:55:01.166Z,100374.25
2023-05-19T08:57:30.837Z,100371.50
2023-05-19T09:00:02.405Z,100362.59
2023-05-19T09:02:33.972Z,100367.88
2023-05-19T09:05:03.565Z,100387.34
2023-05-19T09:07:34.886Z,100382.38
2023-05-19T09:10:04.170Z,100371.44
2023-05-19T09:12:34.917Z,100376.97
2023-05-19T09:15:06.560Z,100370.56
2023-05-19T09:17:37.685Z,100370.69
2023-05-19T09:20:11.666Z,100361.28
2023-05-19T09:22:45.465Z,100360.19
2023-05-19T09:25:21.743Z,100363.25
2023-05-19T09:27:51.350Z,100361.97
2023-05-19T09:30:21.936Z,100367.38
2023-05-19T09:32:53.070Z,100370.81
2023-05-19T09:35:22.277Z,100358.53
2023-05-19T09:37:51.322Z,100354.72
2023-05-19T09:40:20.602Z,100360.53
2023-05-19T09:42:50.003Z,100355.88
2023-05-19T09:45:19.032Z,100346.94
2023-05-19T09:47:49.650Z,100360.88
2023-05-19T09:50:18.872Z,100364.00
2023-05-19T09:52:49.028Z,100359.63
2023-05-19T09:55:18.917Z,100366.66
2023-05-19T09:57:49.203Z,100355.94
2023-05-19T10:00:19.762Z,100353.50
2023-05-19T10:02:51.172Z,100355.03
2023-05-19T10:05:22.049Z,100363.84
2023-05-19T10:07:55.056Z,100363.41
2023-05-19T10:10:24.248Z,100358.25
2023-05-19T10:12:55.519Z,100350.97
2023-05-19T10:15:26.527Z,100354.19
2023-05-19T10:17:59.444Z,100358.16
2023-05-19T10:20:29.186Z,100357.16
2023-05-19T10:22:58.418Z,100341.91
2023-05-19T10:25:27.967Z,100363.16
2023-05-19T10:28:00.183Z,100344.31
2023-05-19T10:30:33.440Z,100337.31
2023-05-19T10:33:07.872Z,100339.44
2023-05-19T10:36:03.071Z,100340.56
2023-05-19T10:38:43.107Z,100344.53
2023-05-19T10:41:18.680Z,100343.06
2023-05-19T10:43:50.603Z,100334.41
2023-05-19T10:46:22.830Z,100339.28
2023-05-19T10:48:53.458Z,100334.63
2023-05-19T10:51:22.584Z,100328.88
2023-05-19T10:53:51.576Z,100334.75
2023-05-19T10:56:33.093Z,100335.50
2023-05-19T10:59:03.400Z,100335.00
2023-05-19T11:01:33.854Z,100336.72
2023-05-19T11:04:09.332Z,100337.19
2023-05-19T11:06:38.812Z,100342.84
2023-05-19T11:09:15.470Z,100340.44
2023-05-19T11:11:47.662Z,100328.78
2023-05-19T11:14:21.211Z,100332.34
2023-05-19T11:16:51.766Z,100320.22
2023-05-19T11:19:28.491Z,100337.19
2023-05-19T11:21:59.081Z,100337.38
2023-05-19T11:24:44.800Z,100331.31
2023-05-19T11:27:27.969Z,100327.69
2023-05-19T11:29:59.389Z,100326.97
2023-05-19T11:32:30.324Z,100328.38
2023-05-19T11:35:01.984Z,100330.22
2023-05-19T11:37:35.988Z,100340.56
2023-05-19T11:40:07.282Z,100340.75
2023-05-19T11:42:38.134Z,100324.97
2023-05-19T11:45:10.606Z,100334.28
2023-05-19T11:47:56.374Z,100335.25
2023-05-19T11:50:31.965Z,100326.31
2023-05-19T11:53:02.384Z,100325.44
2023-05-19T11:55:32.077Z,100317.78
2023-05-19T11:58:05.023Z,100325.50
2023-05-19T12:00:40.246Z,100333.34
2023-05-19T12:03:10.454Z,100324.88
2023-05-19T12:05:45.275Z,100333.69
2023-05-19T12:08:14.888Z,100330.88
2023-05-19T12:10:44.020Z,100335.63
2023-05-19T12:13:14.098Z,100329.34
2023-05-19T12:15:43.145Z,100335.44
2023-05-19T12:18:12.300Z,100336.97
2023-05-19T12:20:43.020Z,100335.50
2023-05-19T12:23:12.287Z,100333.78
2023-05-19T12:25:41.924Z,100350.94
2023-05-19T12:28:11.746Z,100344.28
2023-05-19T12:30:41.755Z,100349.78
2023-05-19T12:33:12.044Z,100348.88
2023-05-19T12:35:44.696Z,100359.44
2023-05-19T12:38:15.893Z,100358.31
2023-05-19T12:40:45.903Z,100346.47
2023-05-19T12:43:22.233Z,100352.09
2023-05-19T12:45:52.502Z,100354.47
2023-05-19T12:48:23.919Z,100349.94
2023-05-19T12:50:55.953Z,100352.13
2023-05-19T12:53:28.442Z,100359.22
2023-05-19T12:55:57.518Z,100349.59
2023-05-19T12:58:26.731Z,100350.84
2023-05-19T13:01:01.134Z,100350.66
2023-05-19T13:03:30.424Z,100350.34
2023-05-19T13:06:01.019Z,100349.94
2023-05-19T13:08:30.197Z,100350.78
2023-05-19T13:10:59.421Z,100352.06
2023-05-19T13:13:28.485Z,100356.31
2023-05-19T13:15:57.564Z,100362.81
2023-05-19T13:18:27.790Z,100361.25
2023-05-19T13:20:57.106Z,100353.63
2023-05-19T13:23:27.826Z,100346.09
2023-05-19T13:26:18.272Z,100353.69
2023-05-19T13:28:48.034Z,100358.59
2023-05-19T13:31:17.220Z,100347.03
2023-05-19T13:33:46.621Z,100353.69
2023-05-19T13:36:15.768Z,100356.69
2023-05-19T13:38:46.352Z,100355.59
2023-05-19T13:41:16.138Z,100349.41
2023-05-19T13:43:45.330Z,100351.91
2023-05-19T13:46:14.905Z,100353.09
2023-05-19T13:48:44.219Z,100346.94
2023-05-19T13:51:13.678Z,100344.84
2023-05-19T13:53:43.259Z,100346.44
2023-05-19T13:56:13.910Z,100343.44
2023-05-19T13:58:43.091Z,100346.47
2023-05-19T14:01:12.439Z,100351.03
2023-05-19T14:03:41.982Z,100350.84
2023-05-19T14:06:11.175Z,100351.41
2023-05-19T14:08:40.343Z,100349.75
2023-05-19T14:11:09.551Z,100356.47
2023-05-19T14:13:43.254Z,100347.56
2023-05-19T14:16:12.829Z,100354.28
2023-05-19T14:18:42.308Z,100361.00
2023-05-19T14:21:29.894Z,100350.88
2023-05-19T14:23:59.221Z,100347.41
2023-05-19T14:26:29.409Z,100358.16
2023-05-19T14:29:00.180Z,100373.06
2023-05-19T14:31:29.473Z,100356.84
2023-05-19T14:33:58.800Z,100359.81
2023-05-19T14:36:27.948Z,100354.97
2023-05-19T14:39:15.812Z,100353.97
2023-05-19T14:41:45.297Z,100353.22
2023-05-19T14:44:16.007Z,100355.78
2023-05-19T14:46:45.259Z,100353.44
2023-05-19T14:49:14.846Z,100348.63
2023-05-19T14:51:44.011Z,100357.94
2023-05-19T14:54:13.117Z,100353.09
2023-05-19T14:56:42.299Z,100363.63
2023-05-19T14:59:11.564Z,100357.38
2023-05-19T15:01:42.358Z,100352.88
2023-05-19T15:07:16.682Z,100354.31
2023-05-19T15:09:45.925Z,100344.28
2023-05-19T15:12:15.044Z,100347.75
2023-05-19T15:14:44.293Z,100358.38
2023-05-19T15:17:14.883Z,100347.31
2023-05-19T15:19:44.514Z,100351.97
2023-05-19T15:22:13.830Z,100349.22
2023-05-19T15:24:42.938Z,100346.31
2023-05-19T15:27:12.244Z,100345.94
2023-05-19T15:29:41.514Z,100345.94
2023-05-19T15:32:10.840Z,100348.28
2023-05-19T15:34:41.446Z,100344.44
2023-05-19T15:37:29.110Z,100345.94
2023-05-19T15:39:58.560Z,100353.41
2023-05-19T15:42:30.165Z,100353.31
2023-05-19T15:44:59.416Z,100354.41
2023-05-19T15:47:28.683Z,100345.66
2023-05-19T15:49:59.269Z,100355.16
2023-05-19T15:52:29.386Z,100352.69
2023-05-19T15:54:59.286Z,100358.56
2023-05-19T15:57:28.448Z,100357.81
2023-05-19T15:59:57.843Z,100353.50
2023-05-19T16:02:27.364Z,100352.25
2023-05-19T16:04:56.736Z,100366.66
2023-05-19T16:07:27.506Z,100363.63
2023-05-19T16:09:56.626Z,100367.19
2023-05-19T16:12:26.210Z,100367.50
2023-05-19T16:14:55.548Z,100364.69
2023-05-19T16:17:24.662Z,100377.41
2023-05-19T16:19:53.848Z,100365.03
2023-05-19T16:22:24.993Z,100367.81
2023-05-19T16:24:55.875Z,100366.41
2023-05-19T16:27:24.976Z,100370.84
2023-05-19T16:29:54.096Z,100370.91
2023-05-19T16:32:23.324Z,100369.09
2023-05-19T16:34:52.432Z,100377.25
2023-05-19T16:37:21.533Z,100381.34
2023-05-19T16:39:50.737Z,100383.22
2023-05-19T16:42:21.308Z,100386.00
2023-05-19T16:44:50.538Z,100385.19
2023-05-19T16:47:19.969Z,100393.50
2023-05-19T16:49:49.047Z,100393.16
2023-05-19T16:52:18.152Z,100393.16
2023-05-19T16:54:47.283Z,100389.63
2023-05-19T16:57:35.201Z,100400.28
2023-05-19T17:00:06.634Z,100405.63
2023-05-19T17:02:35.839Z,100401.59
2023-05-19T17:05:05.476Z,100403.53
2023-05-19T17:07:34.752Z,100410.63
2023-05-19T17:10:04.110Z,100405.28
2023-05-19T17:12:33.798Z,100414.34
2023-05-19T17:15:03.115Z,100416.03
2023-05-19T17:17:35.492Z,100419.47
2023-05-19T17:20:04.917Z,100422.66
2023-05-19T17:22:34.110Z,100413.44
2023-05-19T17:25:03.205Z,100428.63
2023-05-19T17:27:33.874Z,100429.03
2023-05-19T17:30:03.240Z,100437.38
2023-05-19T17:32:39.627Z,100445.03
2023-05-19T17:35:10.100Z,100433.88
2023-05-19T17:37:39.404Z,100442.78
2023-05-19T17:40:09.753Z,100443.59
2023-05-19T17:42:38.955Z,100442.97
2023-05-19T17:45:12.155Z,100444.72
2023-05-19T17:47:42.768Z,100445.44
2023-05-19T17:50:12.265Z,100447.13
2023-05-19T17:52:42.257Z,100441.53
2023-05-19T17:55:13.520Z,100446.03
2023-05-19T17:57:45.591Z,100456.38
2023-05-19T18:00:15.569Z,100465.81
2023-05-19T18:05:34.506Z,100472.50
2023-05-19T18:08:07.317Z,100471.84
2023-05-19T18:10:39.091Z,100463.88
2023-05-19T18:13:09.880Z,100470.66
2023-05-19T18:15:59.967Z,100470.66
2023-05-19T18:18:30.739Z,100470.66
2023-05-19T18:20:59.935Z,100475.38
2023-05-19T18:23:29.165Z,100478.72
2023-05-19T18:25:58.377Z,100480.59
2023-05-19T18:28:29.796Z,100482.28
2023-05-19T18:31:02.158Z,100488.03
2023-05-19T18:33:33.225Z,100487.41
2023-05-19T18:36:02.453Z,100488.66
2023-05-19T18:38:31.754Z,100494.06
2023-05-19T18:41:01.897Z,100502.00
2023-05-19T18:43:33.477Z,100497.91
2023-05-19T18:46:03.226Z,100503.34
2023-05-19T18:48:34.545Z,100493.56
2023-05-19T18:51:05.203Z,100501.66
2023-05-19T18:53:37.113Z,100506.84
2023-05-19T18:56:06.982Z,100508.75
2023-05-19T18:58:36.112Z,100503.81
2023-05-19T19:01:05.340Z,100501.59
2023-05-19T19:03:36.134Z,100503.41
2023-05-19T19:06:05.481Z,100498.41
2023-05-19T19:08:34.665Z,100501.38
2023-05-19T19:11:05.346Z,100505.66
2023-05-19T19:13:34.546Z,100506.56
2023-05-19T19:16:04.253Z,100506.63
2023-05-19T19:18:34.758Z,100505.09
2023-05-19T19:21:06.573Z,100504.50
2023-05-19T19:23:35.864Z,100503.94
2023-05-19T19:26:08.938Z,100508.28
2023-05-19T19:28:39.605Z,100507.41
2023-05-19T19:31:09.212Z,100514.44
2023-05-19T19:33:59.197Z,100513.59
2023-05-19T19:36:49.839Z,100512.97
2023-05-19T19:39:20.068Z,100515.59
2023-05-19T19:41:49.352Z,100524.66
2023-05-19T19:44:18.440Z,100518.53
2023-05-19T19:47:07.258Z,100517.66
2023-05-19T19:49:36.876Z,100525.03
2023-05-19T19:52:10.447Z,100526.88
2023-05-19T19:54:40.088Z,100526.59
2023-05-19T19:57:09.574Z,100526.91
2023-05-19T19:59:38.728Z,100530.59
2023-05-19T20:02:10.247Z,100538.56
2023-05-19T20:04:39.532Z,100538.22
2023-05-19T20:07:10.076Z,100534.84
2023-05-19T20:09:39.339Z,100549.44
2023-05-19T20:12:09.144Z,100553.72
2023-05-19T20:14:38.236Z,100546.81
2023-05-19T20:17:07.374Z,100545.91
2023-05-19T20:19:36.753Z,100542.25
2023-05-19T20:22:06.194Z,100558.47
2023-05-19T20:24:36.942Z,100549.56
2023-05-19T20:27:07.508Z,100558.63
2023-05-19T20:29:36.976Z,100559.84
2023-05-19T20:32:06.435Z,100563.97
2023-05-19T20:34:35.704Z,100563.06
2023-05-19T20:37:05.085Z,100564.88
2023-05-19T20:39:34.640Z,100566.25
2023-05-19T20:42:05.324Z,100575.22
2023-05-19T20:44:34.438Z,100567.97
2023-05-19T20:47:04.407Z,100569.66
2023-05-19T20:49:34.519Z,100569.00
2023-05-19T20:52:04.026Z,100576.34
2023-05-19T20:54:33.043Z,100574.53
2023-05-19T20:57:06.503Z,100579.41
2023-05-19T20:59:37.089Z,100580.28
2023-05-19T21:02:07.881Z,100582.72
2023-05-19T21:04:37.941Z,100586.13
2023-05-19T21:07:07.285Z,100578.78
2023-05-19T21:09:36.388Z,100578.91
2023-05-19T21:12:06.247Z,100579.94
2023-05-19T21:14:36.744Z,100585.59
2023-05-19T21:17:07.255Z,100589.09
2023-05-19T21:19:38.301Z,100586.63
2023-05-19T21:22:07.455Z,100579.88
2023-05-19T21:24:36.698Z,100578.75
2023-05-19T21:27:06.543Z,100581.00
2023-05-19T21:29:37.153Z,100577.03
2023-05-19T21:32:06.887Z,100574.25
2023-05-19T21:34:36.172Z,100576.25
2023-05-19T21:37:05.446Z,100571.66
2023-05-19T21:39:34.566Z,100573.28
2023-05-19T21:42:04.128Z,100575.78
2023-05-19T21:44:33.177Z,100574.72
2023-05-19T21:47:03.824Z,100577.22
2023-05-19T21:49:32.909Z,100573.44
2023-05-19T21:52:03.317Z,100569.63
2023-05-19T21:54:32.830Z,100573.31
2023-05-19T21:57:02.498Z,100569.19
2023-05-19T21:59:31.724Z,100567.69
2023-05-19T22:02:00.874Z,100575.34
2023-05-19T22:04:31.713Z,100565.13
2023-05-19T22:07:00.781Z,100567.41
2023-05-19T22:09:30.174Z,100565.91
2023-05-19T22:11:59.281Z,100574.78
2023-05-19T22:14:28.404Z,100561.03
2023-05-19T22:16:57.544Z,100561.94
2023-05-19T22:19:26.667Z,100562.53
2023-05-19T22:22:09.773Z,100569.56
2023-05-19T22:24:42.023Z,100565.47
2023-05-19T22:27:11.779Z,100561.06
2023-05-19T22:29:42.888Z,100564.13
2023-05-19T22:32:12.315Z,100565.22
2023-05-19T22:34:41.814Z,100573.94
2023-05-19T22:37:12.506Z,100569.31
2023-05-19T22:39:41.886Z,100570.41
2023-05-19T22:42:11.251Z,100572.56
2023-05-19T22:44:40.342Z,100568.44
2023-05-19T22:47:13.624Z,100566.91
2023-05-19T22:49:43.689Z,100562.34
2023-05-19T22:52:14.454Z,100563.31
2023-05-19T22:54:43.572Z,100560.06
2023-05-19T22:57:12.974Z,100560.72
2023-05-19T22:59:42.364Z,100560.84
2023-05-19T23:02:11.435Z,100565.47
2023-05-19T23:04:40.519Z,100558.72
2023-05-19T23:07:09.531Z,100558.31
2023-05-19T23:09:39.995Z,100546.94
2023-05-19T23:12:09.145Z,100550.63
2023-05-19T23:14:38.175Z,100547.88
2023-05-19T23:17:07.437Z,100550.50
2023-05-19T23:19:37.098Z,100553.84
2023-05-19T23:22:06.659Z,100549.84
2023-05-19T23:24:35.627Z,100547.25
2023-05-19T23:27:06.656Z,100543.56
2023-05-19T23:29:35.637Z,100540.03
2023-05-19T23:32:04.835Z,100546.34
2023-05-19T23:34:33.906Z,100541.59
2023-05-19T23:37:03.079Z,100543.75
2023-05-19T23:39:32.060Z,100537.03
2023-05-19T23:42:01.086Z,100540.69
2023-05-19T23:44:31.658Z,100527.84
2023-05-19T23:47:01.187Z,100530.00
2023-05-19T23:49:30.315Z,100532.72
2023-05-19T23:51:59.332Z,100525.69
2023-05-19T23:54:30.412Z,100527.38
2023-05-19T23:56:59.660Z,100528.75
2023-05-19T23:59:28.688Z,100531.34
